Yuzhno-Sakhalinsk, Russia
Current Conditions -  °F | °C
As of 10:00 PM on Monday 20 Oct 2014 (Local Time) from UHSS Reporting Station
Broken Clouds Broken Clouds  
Wind Chill: 55°   Ceiling: 2200
Heat Index: 55°   Visibility: 5mi
Dew Point: 52°   Wind: 2mph
Humidity: 88%   Direction: 260°W
Pressure: 29.8"   Gusts: NA
Location:  46.95°N, 142.73°E
Report Text: UHSS 201100Z 26001MPS 8000 BKN022CB 13/11 Q1009 RMK MT OBSCQFE755/1007
Loading
Personal Weather Stations






























Interactive Weather Map
Tropical Storm Tracking
New forecast layout! Learn more

10-Day Weather Forecast

Advertisements
Track Severe Weather on mobile